Historique des mesures à Cassis (13260), France
Quotidien Résumé Novembre 28, 2017 Unités:  Métrique    US   Métrique/US
« Précédent (Jour)
Suivant (Jour) »
Quotidien Hebdomadaire Mensuel Annuel Période au choix
  Maximum: Minimum: Moyenne:
Température: TemperatureC °C 5.3 °C 8 °C
Point de rosée: DewpointC °C -2.6 °C 2 °C
Humidité: Humidity % 55 % 62 %
Vitesse du vent: 0 km/h 0 km/h 1 km/h
Rafales: 0 km/h - -
Vent:- - WNW
Pression: PressurehPa hPa 1007.0 hPa -
Précipitations: 0.0 mm    
Historical Graphs
 
 
Mesures pour : Novembre 28, 2017
Heure Temperature Point de rosée Pression Vent Vitesse du vent Rafales Humidité Pluie (par heure) Conditions
TemperatureC °C DewpointC °C PressurehPa hPa Calm     Humidity % HourlyPrecipMM mm SoftwareType W/m2
00:11 6.3 °C -2.1 °C 1019.9 hPa Calm     55 % 0.0 mm open2300-1.11 W/m2
01:10 5.8 °C -2.6 °C 1019.5 hPa Calm     55 % 0.0 mm open2300-1.11 W/m2
02:11 5.3 °C -2.6 °C 1019.2 hPa Calm     57 % 0.0 mm open2300-1.11 W/m2
03:10 5.4 °C -2.2 °C 1018.5 hPa Calm     58 % 0.0 mm open2300-1.11 W/m2
04:11 5.9 °C -1.6 °C 1017.8 hPa Calm     59 % 0.0 mm open2300-1.11 W/m2
05:10 6.4 °C -0.6 °C 1016.8 hPa Calm     61 % 0.0 mm open2300-1.11 W/m2
06:11 6.7 °C -0.1 °C 1016.1 hPa Calm     62 % 0.0 mm open2300-1.11 W/m2
07:10 6.8 °C 0.2 °C 1015.8 hPa Calm     63 % 0.0 mm open2300-1.11 W/m2
08:11 7.1 °C 0.9 °C 1015.5 hPa Calm     65 % 0.0 mm open2300-1.11 W/m2
09:10 7.9 °C 2.1 °C 1015.1 hPa Calm     67 % 0.0 mm open2300-1.11 W/m2
10:11 9.2 °C 3.2 °C 1014.8 hPa Calm     66 % 0.0 mm open2300-1.11 W/m2
11:10 10.4 °C 4.3 °C 1014.1 hPa Calm     66 % 0.0 mm open2300-1.11 W/m2
12:11 11.8 °C 6.3 °C 1012.8 hPa Calm     69 % 0.0 mm open2300-1.11 W/m2
14:11 12.8 °C 7.3 °C 1010.4 hPa Calm   6.4 km/h 69 % 0.0 mm open2300-1.11 W/m2
15:10 12.6 °C 7.1 °C 1009.7 hPa Calm     69 % 0.0 mm open2300-1.11 W/m2
16:11 12.2 °C 5.1 °C 1009.0 hPa Calm     62 % 0.0 mm open2300-1.11 W/m2
17:10 10.9 °C 4.8 °C 1008.7 hPa WNW 21.6 km/h 22 km/h 66 % 0.0 mm open2300-1.11 W/m2
18:11 9.8 °C 4.6 °C 1009.0 hPa Calm     70 % 0.0 mm open2300-1.11 W/m2
19:10 8.8 °C 3.6 °C 1008.4 hPa Calm     70 % 0.0 mm open2300-1.11 W/m2
20:11 8.4 °C 3.4 °C 1008.0 hPa Calm     71 % 0.0 mm open2300-1.11 W/m2
21:10 7.5 °C 2.9 °C 1008.0 hPa Calm     73 % 0.0 mm open2300-1.11 W/m2
22:11 7.1 °C 2.4 °C 1007.3 hPa Calm     72 % 0.0 mm open2300-1.11 W/m2
23:10 6.9 °C 2.4 °C 1007.0 hPa Calm     73 % 0.0 mm open2300-1.11 W/m2
Observations météo à CASSIS
WU-History script by Weather Underground - 1 mb